Time;durP1;ratioP1;P1;durP2;ratioP2;P2;SDS_P1;SDS_P2;PMS_P1;PMS_P2;Temp;Humidity;BMP_temperature;BMP_pressure;BME280_temperature;BME280_humidity;BME280_pressure;Samples;Min_cycle;Max_cycle;Signal;HPM_P1;HPM_P2
2022/01/07 00:01:22;;;;;;;11.85;6.07;;;;;;;5.78;71.68;101334.63;5076683;28;20055;-65
2022/01/07 00:03:51;;;;;;;14.18;5.93;;;;;;;5.54;72.87;101332.34;5093830;28;20403;-66
2022/01/07 00:06:19;;;;;;;14.30;6.73;;;;;;;5.54;73.09;101328.81;5095428;28;20048;-65
2022/01/07 00:08:46;;;;;;;15.55;6.47;;;;;;;5.47;73.36;101325.47;5094909;28;20043;-65
2022/01/07 00:11:14;;;;;;;18.52;6.53;;;;;;;5.52;74.29;101309.13;5094410;28;20044;-66
2022/01/07 00:13:41;;;;;;;15.40;6.75;;;;;;;5.61;73.89;101302.06;5089060;28;20048;-68
2022/01/07 00:16:10;;;;;;;14.32;6.95;;;;;;;5.36;75.09;101302.75;5094593;28;20055;-68
2022/01/07 00:18:41;;;;;;;16.52;6.78;;;;;;;5.35;75.82;101305.75;5094949;28;20070;-67
2022/01/07 00:21:08;;;;;;;15.13;7.18;;;;;;;5.18;75.86;101289.53;5095067;28;20055;-67
2022/01/07 00:23:36;;;;;;;15.05;7.20;;;;;;;5.24;76.72;101284.91;5094441;28;20052;-67
2022/01/07 00:26:04;;;;;;;17.90;7.72;;;;;;;5.01;77.85;101288.03;5095003;28;20052;-68
2022/01/07 00:28:31;;;;;;;15.65;7.10;;;;;;;4.97;78.70;101276.81;5094556;28;20055;-67
2022/01/07 00:30:58;;;;;;;16.60;6.70;;;;;;;5.10;78.75;101268.19;5094774;28;20375;-68
2022/01/07 00:33:26;;;;;;;19.05;7.13;;;;;;;5.04;79.24;101271.16;5094829;28;20044;-67
2022/01/07 00:35:56;;;;;;;19.15;6.57;;;;;;;4.96;79.75;101266.16;5095152;28;20044;-68
2022/01/07 00:38:23;;;;;;;12.32;5.97;;;;;;;4.93;80.28;101251.16;5095084;28;20044;-68
2022/01/07 00:40:50;;;;;;;14.65;7.00;;;;;;;4.89;80.53;101244.56;5094761;28;20515;-68
2022/01/07 00:43:18;;;;;;;14.85;6.38;;;;;;;4.93;80.38;101240.25;5093180;28;20071;-68
2022/01/07 00:45:45;;;;;;;17.08;5.90;;;;;;;4.92;80.35;101241.31;5098160;28;20052;-67
2022/01/07 00:48:12;;;;;;;13.73;5.88;;;;;;;5.01;80.10;101249.81;5097351;28;20059;-67
2022/01/07 00:50:40;;;;;;;19.20;7.25;;;;;;;4.94;80.40;101241.88;5098973;28;20055;-67
2022/01/07 00:53:07;;;;;;;13.20;6.15;;;;;;;4.82;80.46;101251.34;5098339;28;20521;-67
2022/01/07 00:55:36;;;;;;;13.93;6.30;;;;;;;4.99;80.67;101244.63;5098441;28;20051;-67
2022/01/07 00:58:04;;;;;;;14.02;6.43;;;;;;;4.98;81.02;101239.44;5096954;28;20063;-67
2022/01/07 01:00:31;;;;;;;17.38;6.30;;;;;;;5.05;80.75;101245.47;5098496;28;20091;-66
2022/01/07 01:02:59;;;;;;;13.75;6.30;;;;;;;5.26;80.12;101245.34;5097143;28;20056;-66
2022/01/07 01:05:27;;;;;;;17.65;6.32;;;;;;;5.11;80.07;101247.19;5096638;28;20052;-66
2022/01/07 01:07:55;;;;;;;17.08;6.75;;;;;;;5.00;80.46;101231.81;5098325;28;20052;-66
2022/01/07 01:10:24;;;;;;;15.13;6.45;;;;;;;5.11;80.37;101226.13;5098343;28;20048;-65
2022/01/07 01:12:53;;;;;;;14.88;6.43;;;;;;;4.96;80.14;101223.31;5098050;28;20055;-64
2022/01/07 01:15:25;;;;;;;18.17;6.75;;;;;;;5.00;80.87;101232.63;5098095;28;20062;-65
2022/01/07 01:17:55;;;;;;;13.18;6.15;;;;;;;5.04;80.17;101236.47;5098180;28;20047;-65
2022/01/07 01:20:22;;;;;;;;;;;;;;;4.91;80.38;101226.03;5098614;28;20056;-65
2022/01/07 01:22:50;;;;;;;15.68;7.10;;;;;;;4.92;80.73;101229.56;5096802;28;20370;-65
2022/01/07 01:25:17;;;;;;;14.75;6.72;;;;;;;5.02;80.19;101219.53;5097911;28;20048;-64
2022/01/07 01:27:44;;;;;;;16.65;6.70;;;;;;;5.16;79.69;101209.78;5097586;28;20238;-65
2022/01/07 01:30:17;;;;;;;14.98;6.25;;;;;;;5.09;79.92;101208.38;5097965;28;20051;-65
2022/01/07 01:32:46;;;;;;;15.43;7.28;;;;;;;4.87;80.31;101233.09;5092500;28;20040;-66
2022/01/07 01:35:14;;;;;;;12.20;6.10;;;;;;;4.85;79.82;101240.72;5097797;28;20047;-66
2022/01/07 01:37:42;;;;;;;13.80;6.95;;;;;;;4.90;80.10;101229.03;5076468;28;20059;-65
2022/01/07 01:40:09;;;;;;;14.30;7.10;;;;;;;4.99;79.98;101241.06;5082863;28;20040;-66
2022/01/07 01:42:38;;;;;;;16.10;6.38;;;;;;;4.89;80.36;101221.91;5077519;28;20048;-65
2022/01/07 01:45:08;;;;;;;11.95;6.15;;;;;;;5.15;79.25;101229.97;5089832;28;20517;-65
2022/01/07 01:47:35;;;;;;;16.10;6.47;;;;;;;5.02;79.14;101224.97;5096432;28;20067;-65
2022/01/07 01:50:04;;;;;;;14.63;6.57;;;;;;;4.96;80.23;101223.31;5098092;28;20075;-65
2022/01/07 01:52:31;;;;;;;14.60;6.78;;;;;;;5.07;80.12;101237.84;5097889;28;20052;-65
2022/01/07 01:54:58;;;;;;;15.93;6.80;;;;;;;5.17;79.96;101227.81;5095736;28;20040;-65
2022/01/07 01:57:25;;;;;;;13.75;5.80;;;;;;;5.28;79.25;101225.97;5096935;28;20052;-65
2022/01/07 01:59:53;;;;;;;14.02;6.68;;;;;;;4.83;80.18;101228.44;5095840;28;20060;-65
2022/01/07 02:02:20;;;;;;;17.27;7.13;;;;;;;4.95;80.51;101218.13;5097680;28;20040;-65
2022/01/07 02:04:47;;;;;;;12.05;6.20;;;;;;;4.95;80.88;101218.13;5095880;28;20052;-65
2022/01/07 02:07:15;;;;;;;20.05;6.75;;;;;;;5.22;80.42;101218.81;5097652;28;20048;-65
2022/01/07 02:09:42;;;;;;;17.02;6.30;;;;;;;5.08;79.94;101220.38;5095869;28;20055;-68
2022/01/07 02:12:10;;;;;;;11.88;6.30;;;;;;;5.28;79.64;101213.09;5095928;28;20048;-64
2022/01/07 02:14:37;;;;;;;16.38;6.82;;;;;;;5.21;79.71;101209.00;5095436;28;20611;-65
2022/01/07 02:17:09;;;;;;;16.48;6.63;;;;;;;5.07;80.61;101195.00;5095555;28;20040;-65
2022/01/07 02:19:37;;;;;;;19.75;6.40;;;;;;;5.40;79.79;101208.25;5096986;28;20055;-65
2022/01/07 02:22:06;;;;;;;14.68;5.60;;;;;;;5.50;79.33;101194.63;5097282;28;20055;-65
2022/01/07 02:24:34;;;;;;;15.90;6.28;;;;;;;5.38;78.70;101188.59;5096678;28;20055;-65
2022/01/07 02:27:02;;;;;;;14.65;5.57;;;;;;;5.39;79.63;101179.28;5096917;28;20056;-65
2022/01/07 02:29:30;;;;;;;12.57;5.65;;;;;;;5.42;80.06;101183.41;5096321;28;20052;-65
2022/01/07 02:31:57;;;;;;;18.02;5.97;;;;;;;5.37;80.35;101183.41;5096982;28;20040;-64
2022/01/07 02:34:24;;;;;;;12.07;5.43;;;;;;;5.37;80.69;101183.41;5095186;28;20035;-64
2022/01/07 02:36:52;;;;;;;17.10;5.95;;;;;;;5.27;80.76;101164.22;5096855;28;20048;-65
2022/01/07 02:39:19;;;;;;;15.70;5.53;;;;;;;5.24;80.94;101162.03;5096682;28;20139;-65
2022/01/07 02:41:46;;;;;;;11.85;5.20;;;;;;;5.14;81.79;101157.38;5095608;28;20056;-65
2022/01/07 02:44:13;;;;;;;16.15;5.57;;;;;;;5.39;81.40;101151.97;5094506;28;20048;-65
2022/01/07 02:46:41;;;;;;;15.13;5.28;;;;;;;5.28;80.85;101139.38;5096598;28;20059;-65
2022/01/07 02:49:10;;;;;;;12.00;5.05;;;;;;;5.40;80.87;101145.44;5096365;28;20139;-65
2022/01/07 02:51:37;;;;;;;12.55;5.60;;;;;;;5.43;80.71;101144.06;5078674;28;20044;-65
2022/01/07 02:54:06;;;;;;;10.70;4.68;;;;;;;5.30;81.20;101129.00;5094358;28;20056;-65
2022/01/07 02:56:34;;;;;;;14.73;4.65;;;;;;;5.53;80.13;101133.97;5096461;28;20059;-66
2022/01/07 02:59:05;;;;;;;13.27;4.82;;;;;;;5.60;79.96;101136.44;5094281;28;20517;-65
2022/01/07 03:01:33;;;;;;;11.77;5.20;;;;;;;5.55;80.06;101134.53;5095135;28;20055;-65
2022/01/07 03:04:00;;;;;;;13.05;5.38;;;;;;;5.70;79.63;101129.09;5094316;28;20044;-65
2022/01/07 03:06:27;;;;;;;14.15;4.57;;;;;;;5.33;79.83;101133.13;5095736;28;20059;-65
2022/01/07 03:08:55;;;;;;;11.70;4.70;;;;;;;5.19;81.04;101148.34;5094823;28;20039;-65
2022/01/07 03:11:22;;;;;;;15.15;5.18;;;;;;;5.34;80.51;101129.28;5096238;28;20044;-65
2022/01/07 03:13:50;;;;;;;10.68;5.10;;;;;;;5.27;80.66;101151.38;5095085;28;20055;-65
2022/01/07 03:16:17;;;;;;;11.25;4.63;;;;;;;5.49;79.62;101134.81;5095907;28;20036;-65
2022/01/07 03:18:45;;;;;;;12.13;4.80;;;;;;;5.49;79.96;101132.06;5096153;28;20063;-64
2022/01/07 03:21:14;;;;;;;11.13;5.00;;;;;;;5.66;79.02;101130.75;5094478;28;20060;-65
2022/01/07 03:23:42;;;;;;;15.70;4.85;;;;;;;5.57;79.39;101135.09;5077753;28;20056;-66
2022/01/07 03:26:09;;;;;;;16.50;4.80;;;;;;;5.37;79.63;101135.03;5095402;28;20048;-65
2022/01/07 03:28:38;;;;;;;13.73;4.85;;;;;;;5.36;79.94;101135.31;5095457;28;20040;-65
2022/01/07 03:31:07;;;;;;;15.60;4.70;;;;;;;5.19;80.30;101153.81;5094231;28;20052;-66
2022/01/07 03:33:34;;;;;;;15.43;4.60;;;;;;;5.42;79.53;101143.22;5094510;28;20048;-65
2022/01/07 03:36:02;;;;;;;8.45;4.25;;;;;;;5.25;79.79;101141.81;5095029;28;20040;-65
2022/01/07 03:38:30;;;;;;;17.92;5.18;;;;;;;5.41;79.12;101133.41;5095795;28;20048;-64
2022/01/07 03:40:57;;;;;;;9.90;4.13;;;;;;;5.47;78.38;101134.25;5095336;28;20052;-64
2022/01/07 03:43:24;;;;;;;12.05;4.47;;;;;;;5.26;79.53;101119.72;5095285;28;20044;-65
2022/01/07 03:45:52;;;;;;;11.90;4.68;;;;;;;5.34;79.26;101132.84;5093109;28;20060;-65
2022/01/07 03:48:19;;;;;;;14.00;4.20;;;;;;;5.35;79.17;101133.66;5094320;28;20052;-66
2022/01/07 03:50:46;;;;;;;11.02;4.35;;;;;;;5.30;78.99;101123.53;5093493;28;20055;-65
2022/01/07 03:53:14;;;;;;;13.15;4.45;;;;;;;5.30;79.47;101120.81;5094525;28;20054;-65
2022/01/07 03:55:41;;;;;;;21.85;5.15;;;;;;;5.40;79.06;101114.56;5094806;28;20048;-64
2022/01/07 03:58:08;;;;;;;11.05;3.97;;;;;;;5.36;78.20;101116.19;5095185;28;20052;-65
2022/01/07 04:00:39;;;;;;;15.20;4.07;;;;;;;5.44;78.62;101118.41;5095191;28;20503;-65
2022/01/07 04:03:12;;;;;;;9.05;3.58;;;;;;;5.75;77.67;101129.09;5095561;28;20044;-65
2022/01/07 04:05:40;;;;;;;13.60;4.32;;;;;;;5.42;77.84;101118.66;5094467;28;20052;-65
2022/01/07 04:08:08;;;;;;;12.15;4.10;;;;;;;5.49;78.05;101121.94;5095199;28;20057;-65
2022/01/07 04:10:36;;;;;;;13.13;3.80;;;;;;;5.56;77.63;101110.78;5093710;28;20055;-65
2022/01/07 04:13:04;;;;;;;12.77;3.60;;;;;;;5.57;77.44;101113.22;5094900;28;20048;-65
2022/01/07 04:15:31;;;;;;;10.48;3.80;;;;;;;5.64;77.44;101093.84;5094707;28;20036;-66
2022/01/07 04:17:58;;;;;;;11.48;3.92;;;;;;;5.51;77.99;101097.09;5095175;28;20083;-65
2022/01/07 04:20:31;;;;;;;15.07;4.28;;;;;;;5.59;77.71;101091.94;5094311;28;20074;-66
2022/01/07 04:23:00;;;;;;;10.38;4.15;;;;;;;5.56;77.43;101097.13;5094133;28;20478;-65
2022/01/07 04:25:27;;;;;;;11.02;3.50;;;;;;;5.58;77.74;101103.94;5094628;28;20510;-66
2022/01/07 04:27:57;;;;;;;11.52;3.72;;;;;;;5.63;77.90;101094.94;5093494;28;20621;-65
2022/01/07 04:30:25;;;;;;;13.68;3.72;;;;;;;5.66;77.96;101095.22;5093655;28;20127;-64
2022/01/07 04:32:54;;;;;;;15.48;3.40;;;;;;;5.71;77.75;101092.50;5095330;28;20063;-66
2022/01/07 04:35:22;;;;;;;11.27;4.00;;;;;;;5.49;78.10;101093.81;5092896;28;20408;-66
2022/01/07 04:37:49;;;;;;;13.32;3.90;;;;;;;5.53;78.03;101100.38;5093679;28;20055;-65
2022/01/07 04:40:17;;;;;;;11.43;3.58;;;;;;;5.45;78.57;101095.44;5094503;28;20495;-65
2022/01/07 04:42:44;;;;;;;12.10;4.10;;;;;;;5.54;78.53;101091.09;5094454;28;20051;-65
2022/01/07 04:45:12;;;;;;;9.23;3.33;;;;;;;5.66;78.60;101097.94;5094526;28;20098;-65
2022/01/07 04:47:40;;;;;;;13.93;3.75;;;;;;;5.77;77.92;101093.28;5076976;28;20071;-65
2022/01/07 04:50:11;;;;;;;8.85;3.60;;;;;;;5.81;77.58;101110.78;5093957;28;20051;-65
2022/01/07 04:52:40;;;;;;;10.98;3.72;;;;;;;5.83;77.54;101111.38;5093534;28;20055;-65
2022/01/07 04:55:08;;;;;;;15.68;3.38;;;;;;;5.80;77.94;101111.06;5093368;28;20044;-65
2022/01/07 04:57:35;;;;;;;11.20;3.60;;;;;;;5.92;77.71;101109.75;5094316;28;20062;-66
2022/01/07 05:00:05;;;;;;;9.70;3.08;;;;;;;5.82;76.82;101097.94;5094843;28;20048;-65
2022/01/07 05:02:32;;;;;;;10.27;3.00;;;;;;;5.73;77.56;101086.75;5094367;28;20055;-65
2022/01/07 05:04:59;;;;;;;14.05;3.42;;;;;;;6.03;76.82;101088.69;5075931;28;20056;-65
2022/01/07 05:07:26;;;;;;;9.70;3.00;;;;;;;6.21;76.64;101097.13;5094346;28;20478;-64
2022/01/07 05:09:54;;;;;;;12.95;3.75;;;;;;;5.98;76.01;101094.16;5072848;28;20056;-66
2022/01/07 05:12:21;;;;;;;13.95;3.10;;;;;;;5.71;77.40;101092.50;5081856;28;20044;-65
2022/01/07 05:14:48;;;;;;;10.18;3.28;;;;;;;5.67;77.48;101091.38;5094261;28;20352;-67
2022/01/07 05:17:15;;;;;;;16.02;2.97;;;;;;;5.47;78.15;101085.06;5094866;28;20048;-65
2022/01/07 05:19:43;;;;;;;11.38;3.17;;;;;;;5.55;78.44;101098.19;5093153;28;20052;-65
2022/01/07 05:22:10;;;;;;;16.33;3.75;;;;;;;5.63;77.77;101097.66;5094205;28;20052;-65
2022/01/07 05:24:37;;;;;;;16.88;3.47;;;;;;;5.45;78.00;101101.75;5094470;28;20063;-66
2022/01/07 05:27:05;;;;;;;14.65;3.55;;;;;;;5.33;78.54;101114.00;5094050;28;20044;-66
2022/01/07 05:29:35;;;;;;;11.23;3.83;;;;;;;5.36;79.33;101116.19;5093778;28;20050;-65
2022/01/07 05:32:04;;;;;;;8.43;2.58;;;;;;;5.41;79.13;101110.72;5096553;28;20083;-64
2022/01/07 05:34:32;;;;;;;9.30;2.80;;;;;;;5.62;78.68;101109.69;5096293;28;20044;-65
2022/01/07 05:36:59;;;;;;;11.75;3.00;;;;;;;5.62;78.58;101109.69;5096252;28;20044;-65
2022/01/07 05:39:27;;;;;;;10.82;3.40;;;;;;;5.74;78.28;101111.06;5097446;28;20051;-65
2022/01/07 05:41:54;;;;;;;13.57;3.30;;;;;;;5.69;78.17;101105.59;5096880;28;20039;-65
2022/01/07 05:44:24;;;;;;;15.10;2.95;;;;;;;5.77;77.68;101100.69;5097605;28;20064;-65
2022/01/07 05:46:51;;;;;;;;;;;;;;;5.63;78.05;101108.59;5097968;28;20043;-65
2022/01/07 05:49:18;;;;;;;7.22;2.72;;;;;;;5.63;78.38;101103.13;5097587;28;20375;-65
2022/01/07 05:51:45;;;;;;;11.32;3.05;;;;;;;5.78;78.06;101100.41;5095621;28;20044;-65
2022/01/07 05:54:13;;;;;;;9.40;3.10;;;;;;;5.72;78.10;101105.03;5097452;28;20047;-64
2022/01/07 05:56:40;;;;;;;11.30;3.58;;;;;;;5.71;78.02;101088.94;5095434;28;20036;-65
2022/01/07 05:59:07;;;;;;;14.40;3.40;;;;;;;5.79;77.98;101090.31;5096984;28;20059;-65
2022/01/07 06:01:34;;;;;;;16.45;4.18;;;;;;;5.79;77.67;101091.09;5096823;28;20051;-65
2022/01/07 06:04:02;;;;;;;16.13;3.42;;;;;;;5.61;78.52;101097.91;5097505;28;20059;-65
2022/01/07 06:06:29;;;;;;;11.95;3.30;;;;;;;5.60;78.95;101096.28;5096865;28;20051;-66
2022/01/07 06:08:56;;;;;;;11.80;2.92;;;;;;;5.61;79.28;101094.38;5095794;28;20071;-66
2022/01/07 06:11:23;;;;;;;14.07;2.80;;;;;;;5.69;79.20;101104.78;5096854;28;20048;-65
2022/01/07 06:13:50;;;;;;;13.77;2.90;;;;;;;5.68;78.92;101100.41;5096756;28;20048;-65
2022/01/07 06:16:18;;;;;;;14.73;3.42;;;;;;;5.64;79.44;101107.50;5096441;28;20040;-65
2022/01/07 06:18:52;;;;;;;12.32;2.90;;;;;;;5.58;79.78;101109.41;5096914;28;20067;-66
2022/01/07 06:21:21;;;;;;;10.52;2.80;;;;;;;5.65;80.06;101111.84;5096788;28;20048;-65
2022/01/07 06:23:48;;;;;;;10.63;3.22;;;;;;;5.69;79.70;101112.97;5097125;28;20044;-66
2022/01/07 06:26:17;;;;;;;13.02;3.85;;;;;;;5.69;80.12;101115.69;5095243;28;20051;-67
2022/01/07 06:28:44;;;;;;;13.48;3.30;;;;;;;5.68;79.73;101120.34;5096385;28;20570;-66
2022/01/07 06:31:11;;;;;;;27.58;10.65;;;;;;;5.83;80.18;101125.03;5097116;28;20048;-64
2022/01/07 06:33:39;;;;;;;12.00;3.80;;;;;;;5.89;80.15;101121.22;5096633;28;20059;-65
2022/01/07 06:36:06;;;;;;;13.10;5.22;;;;;;;5.83;80.74;101122.31;5095568;28;20040;-66
2022/01/07 06:38:33;;;;;;;21.88;4.35;;;;;;;5.90;80.06;101108.34;5096828;28;20407;-65
2022/01/07 06:41:01;;;;;;;13.73;3.15;;;;;;;6.33;78.77;101105.88;5096836;28;20048;-65
2022/01/07 06:43:28;;;;;;;15.30;3.22;;;;;;;6.27;78.56;101107.00;5096049;28;20062;-65
2022/01/07 06:45:55;;;;;;;12.98;3.13;;;;;;;6.31;78.94;101105.31;5096568;28;20371;-66
2022/01/07 06:48:23;;;;;;;11.30;3.38;;;;;;;6.15;78.54;101102.91;5096683;28;20051;-65
2022/01/07 06:50:50;;;;;;;11.77;3.10;;;;;;;6.27;79.23;101104.25;5096709;28;20044;-65
2022/01/07 06:53:17;;;;;;;11.45;3.33;;;;;;;6.13;79.12;101088.69;5095410;28;20056;-65
2022/01/07 06:56:00;;;;;;;16.27;3.13;;;;;;;6.09;79.71;101096.59;5080416;28;20056;-65
2022/01/07 06:58:27;;;;;;;9.65;3.08;;;;;;;6.08;79.74;101091.41;5095979;28;20048;-65
2022/01/07 07:00:55;;;;;;;13.68;3.38;;;;;;;6.07;79.72;101096.06;5096223;28;20066;-65
2022/01/07 07:03:23;;;;;;;10.60;3.00;;;;;;;6.19;80.05;101093.06;5096343;28;20056;-66
2022/01/07 07:05:50;;;;;;;14.40;2.95;;;;;;;6.12;80.11;101100.72;5096200;28;20051;-65
2022/01/07 07:08:17;;;;;;;8.93;3.03;;;;;;;5.99;81.17;101110.28;5096314;28;20064;-63
2022/01/07 07:10:44;;;;;;;14.52;3.85;;;;;;;6.19;80.74;101101.25;5096200;28;20059;-62
2022/01/07 07:13:12;;;;;;;9.63;3.22;;;;;;;6.22;80.63;101106.19;5095926;28;20055;-63
2022/01/07 07:15:39;;;;;;;12.68;3.88;;;;;;;6.33;80.62;101118.75;5095949;28;20490;-65
2022/01/07 07:18:06;;;;;;;15.88;4.25;;;;;;;6.21;80.92;101113.56;5096359;28;20048;-64
2022/01/07 07:20:34;;;;;;;10.65;3.38;;;;;;;6.47;80.62;101106.13;5078046;28;20056;-67
2022/01/07 07:23:01;;;;;;;12.18;5.15;;;;;;;6.59;80.66;101123.09;5096058;28;20047;-69
2022/01/07 07:25:28;;;;;;;14.93;4.18;;;;;;;6.54;79.72;101117.59;5094429;28;20332;-68
2022/01/07 07:27:55;;;;;;;19.60;3.47;;;;;;;6.64;80.01;101117.59;5094244;28;20044;-70
2022/01/07 07:30:23;;;;;;;9.68;3.33;;;;;;;6.66;78.89;101121.69;5093839;28;20040;-70
2022/01/07 07:32:53;;;;;;;12.20;3.70;;;;;;;6.56;79.46;101124.44;5094461;28;20534;-71
2022/01/07 07:37:49;;;;;;;13.85;4.30;;;;;;;6.63;80.40;101135.94;5094497;28;20043;-66
2022/01/07 07:40:17;;;;;;;11.70;3.30;;;;;;;6.65;80.18;101135.66;5087690;28;20049;-67
2022/01/07 07:42:44;;;;;;;11.93;3.33;;;;;;;6.49;80.86;101150.44;5087074;28;20040;-67
2022/01/07 07:45:20;;;;;;;17.20;3.50;;;;;;;6.42;80.70;101142.53;5094641;28;20040;-68
2022/01/07 07:47:47;;;;;;;13.93;3.58;;;;;;;6.39;81.67;101156.78;5093832;28;20059;-67
2022/01/07 07:50:14;;;;;;;13.65;3.22;;;;;;;6.66;80.91;101159.16;5094551;28;20044;-65
2022/01/07 07:52:42;;;;;;;9.88;2.90;;;;;;;6.56;80.80;101162.75;5095506;28;20048;-64
2022/01/07 07:55:09;;;;;;;9.93;3.40;;;;;;;6.65;81.19;101160.28;5092828;28;20063;-66
2022/01/07 07:57:37;;;;;;;14.32;3.65;;;;;;;6.65;81.16;101157.53;5091391;28;20052;-66
2022/01/07 08:00:05;;;;;;;8.68;3.40;;;;;;;6.43;83.00;101163.31;5068909;28;20063;-65
2022/01/07 08:02:39;;;;;;;17.55;3.78;;;;;;;6.48;83.60;101174.28;5082918;28;20122;-65
2022/01/07 08:05:07;;;;;;;12.32;3.47;;;;;;;6.53;83.88;101178.91;5088264;28;20055;-65
2022/01/07 08:07:35;;;;;;;10.15;3.63;;;;;;;6.54;83.46;101169.59;5093242;28;20048;-65
2022/01/07 08:10:03;;;;;;;13.57;6.03;;;;;;;6.50;84.16;101169.31;5092716;28;20580;-65
2022/01/07 08:12:51;;;;;;;17.52;6.47;;;;;;;6.34;84.93;101151.31;5093324;28;20108;-65
2022/01/07 08:18:03;;;;;;;11.95;3.88;;;;;;;6.32;85.40;101163.59;5093012;28;20055;-66
2022/01/07 08:20:31;;;;;;;11.32;3.35;;;;;;;6.23;85.68;101160.59;5076747;28;20395;-65
2022/01/07 08:22:59;;;;;;;8.23;3.15;;;;;;;6.32;86.06;101164.44;5074613;28;20044;-66
2022/01/07 08:25:27;;;;;;;11.63;3.00;;;;;;;6.34;85.13;101164.97;5092180;28;20079;-66
2022/01/07 08:27:56;;;;;;;7.88;2.90;;;;;;;6.36;85.19;101157.28;5091100;28;20048;-66
2022/01/07 08:30:26;;;;;;;12.15;3.22;;;;;;;6.40;85.47;101163.03;5090895;28;20040;-66
2022/01/07 08:35:39;;;;;;;9.18;2.42;;;;;;;6.69;83.41;101156.69;5093901;28;20030;-66
2022/01/07 08:38:06;;;;;;;8.45;2.47;;;;;;;6.45;83.51;101157.59;5093741;28;20051;-66
2022/01/07 08:40:34;;;;;;;20.38;2.80;;;;;;;6.44;83.96;101155.94;5093854;28;20047;-65
2022/01/07 08:43:01;;;;;;;10.95;2.72;;;;;;;6.59;83.94;101158.66;5093137;28;20052;-66
2022/01/07 08:45:29;;;;;;;10.98;2.47;;;;;;;6.78;82.42;101160.53;5075624;28;20044;-66
2022/01/07 08:47:56;;;;;;;10.35;2.20;;;;;;;6.60;82.90;101166.59;5093994;28;20040;-65
2022/01/07 08:50:24;;;;;;;9.75;2.47;;;;;;;6.59;83.97;101158.66;5092932;28;20518;-66
2022/01/07 08:52:52;;;;;;;8.48;2.38;;;;;;;6.72;82.88;101147.97;5094280;28;20052;-68
2022/01/07 08:55:19;;;;;;;10.48;2.20;;;;;;;6.54;82.73;101117.59;5093818;28;20044;-69
2022/01/07 08:57:47;;;;;;;8.63;2.20;;;;;;;6.49;83.29;101102.03;5094072;28;20040;-67
2022/01/07 09:00:15;;;;;;;18.75;8.77;;;;;;;6.59;83.42;101118.41;5067057;28;20047;-67
2022/01/07 09:02:42;;;;;;;7.45;1.90;;;;;;;6.49;83.65;101126.66;5089610;28;20495;-67
2022/01/07 09:05:09;;;;;;;6.93;1.92;;;;;;;6.49;83.34;101112.13;5081974;28;20043;-67
2022/01/07 09:07:37;;;;;;;5.78;1.38;;;;;;;6.60;82.99;101083.66;5097567;28;20418;-68
2022/01/07 09:10:05;;;;;;;8.57;2.50;;;;;;;6.58;83.68;101094.88;5096979;28;20056;-68
2022/01/07 09:12:32;;;;;;;12.40;5.43;;;;;;;6.71;83.63;101096.22;5080314;28;20055;-67
2022/01/07 09:15:00;;;;;;;12.60;3.00;;;;;;;6.74;83.22;101110.19;5098232;28;20063;-67
2022/01/07 09:17:30;;;;;;;7.00;2.08;;;;;;;6.69;83.33;101109.38;5097425;28;20047;-67
2022/01/07 09:19:57;;;;;;;;;;;;;;;6.54;84.00;101123.91;5098800;28;20055;-67
2022/01/07 09:22:24;;;;;;;3.47;1.88;;;;;;;6.48;84.47;101140.63;5097262;28;19920;-68
2022/01/07 09:24:52;;;;;;;6.22;1.95;;;;;;;6.56;83.60;101135.41;5095262;28;20047;-65
2022/01/07 09:27:19;;;;;;;6.60;1.77;;;;;;;6.54;83.86;101144.97;5074239;28;20040;-66
2022/01/07 09:29:46;;;;;;;8.18;2.13;;;;;;;6.41;84.00;101140.91;5084689;28;20509;-68
2022/01/07 09:32:14;;;;;;;7.22;2.17;;;;;;;6.57;83.47;101145.22;5097650;28;20048;-70
2022/01/07 09:34:41;;;;;;;7.28;1.90;;;;;;;6.66;82.62;101145.50;5096936;28;20056;-66
2022/01/07 09:37:10;;;;;;;5.93;1.70;;;;;;;6.77;83.02;101158.06;5079914;28;20048;-67
2022/01/07 09:39:37;;;;;;;5.38;1.95;;;;;;;6.76;82.41;101151.75;5097749;28;20048;-65
2022/01/07 09:42:06;;;;;;;7.28;1.92;;;;;;;6.68;83.18;101151.50;5096620;28;20396;-66
2022/01/07 09:44:38;;;;;;;6.32;1.85;;;;;;;6.69;82.79;101153.97;5105820;28;20063;-67
2022/01/07 09:47:06;;;;;;;5.93;2.15;;;;;;;6.85;82.81;101152.84;5077603;28;20052;-69
2022/01/07 09:49:34;;;;;;;6.78;1.65;;;;;;;6.98;82.34;101148.69;5073024;28;20405;-68
2022/01/07 09:52:03;;;;;;;5.40;1.90;;;;;;;6.82;81.37;101141.63;5077040;28;20056;-68
2022/01/07 09:54:32;;;;;;;7.70;1.63;;;;;;;6.63;82.05;101148.78;5097262;28;20040;-68
2022/01/07 09:57:00;;;;;;;6.55;1.75;;;;;;;6.51;82.37;101149.09;5096430;28;20067;-68
2022/01/07 09:59:28;;;;;;;5.03;1.67;;;;;;;6.64;82.90;101147.72;5097269;28;20060;-68
2022/01/07 10:01:57;;;;;;;6.07;1.83;;;;;;;6.73;82.18;101137.81;5095979;28;20506;-67
2022/01/07 10:04:37;;;;;;;7.53;2.95;;;;;;;6.67;81.90;101144.41;5097169;28;20491;-70
2022/01/07 10:07:10;;;;;;;5.93;2.20;;;;;;;6.98;81.23;101139.66;5097528;28;20079;-68
2022/01/07 10:09:40;;;;;;;5.80;1.88;;;;;;;7.00;80.55;101140.19;5094915;28;20048;-69
2022/01/07 10:12:08;;;;;;;8.20;2.63;;;;;;;6.98;80.97;101131.44;5094781;28;20455;-69
2022/01/07 10:14:36;;;;;;;5.88;2.38;;;;;;;6.99;80.75;101139.38;5096101;28;20410;-67
2022/01/07 10:17:04;;;;;;;5.93;2.00;;;;;;;7.10;80.66;101135.50;5096100;28;20044;-70
2022/01/07 10:19:39;;;;;;;4.95;1.80;;;;;;;7.23;80.33;101136.81;5096397;28;20040;-68
2022/01/07 10:22:09;;;;;;;6.18;1.85;;;;;;;7.58;79.84;101131.94;5092893;28;20059;-69
2022/01/07 10:24:54;;;;;;;6.03;1.58;;;;;;;7.60;78.02;101118.78;5096431;28;20039;-69
2022/01/07 10:27:24;;;;;;;7.03;1.75;;;;;;;7.44;77.44;101116.44;5096202;28;20048;-67
2022/01/07 10:29:51;;;;;;;7.43;2.75;;;;;;;7.45;77.87;101118.06;5095184;28;20081;-68
2022/01/07 10:32:19;;;;;;;7.00;3.20;;;;;;;7.48;78.00;101109.28;5094917;28;20525;-69
2022/01/07 10:35:15;;;;;;;5.50;2.28;;;;;;;7.65;77.19;101107.00;5094476;28;20048;-69
2022/01/07 10:37:57;;;;;;;6.80;1.70;;;;;;;7.61;77.24;101095.78;5095103;28;20055;-69
2022/01/07 10:40:29;;;;;;;9.77;1.98;;;;;;;7.70;76.69;101099.56;5087956;28;20078;-71
2022/01/07 10:43:20;;;;;;;2.80;1.30;;;;;;;7.72;76.83;101102.81;5096406;28;20063;-69
2022/01/07 10:45:53;;;;;;;8.95;1.92;;;;;;;7.71;77.26;101095.69;5089029;28;20052;-69
2022/01/07 10:48:23;;;;;;;7.68;1.90;;;;;;;7.80;76.99;101096.72;5094743;28;20079;-68
2022/01/07 10:50:51;;;;;;;;;;;;;;;7.61;77.07;101083.97;5096240;28;20059;-68
2022/01/07 10:53:27;;;;;;;11.60;2.13;;;;;;;7.71;78.01;101094.88;5095103;28;19919;-68
2022/01/07 10:56:02;;;;;;;11.45;1.80;;;;;;;7.88;76.63;101103.50;5096878;28;20052;-68
2022/01/07 10:58:48;;;;;;;7.10;2.03;;;;;;;7.75;76.97;101099.50;5096172;28;20043;-69
2022/01/07 11:01:21;;;;;;;7.97;1.75;;;;;;;7.85;77.12;101104.09;5095855;28;20036;-68
2022/01/07 11:03:53;;;;;;;7.35;1.90;;;;;;;7.82;77.19;101102.75;5096688;28;20052;-69
2022/01/07 11:06:28;;;;;;;9.82;1.55;;;;;;;7.97;77.58;101104.53;5095276;28;20404;-69
2022/01/07 11:09:00;;;;;;;9.82;1.88;;;;;;;7.86;76.24;101098.31;5092275;28;20048;-69
2022/01/07 11:11:29;;;;;;;8.00;1.95;;;;;;;7.55;76.97;101090.63;5093842;28;20052;-70
2022/01/07 11:14:05;;;;;;;8.27;1.75;;;;;;;7.79;76.91;101102.50;5094770;28;20059;-70
2022/01/07 11:16:36;;;;;;;6.45;2.10;;;;;;;7.74;76.15;101100.59;5096414;28;20253;-70
2022/01/07 11:19:05;;;;;;;5.78;1.67;;;;;;;7.65;77.00;101096.81;5096053;28;20122;-69
2022/01/07 11:21:33;;;;;;;9.38;2.22;;;;;;;7.87;77.07;101093.66;5094874;28;20052;-71
2022/01/07 11:24:36;;;;;;;6.60;1.60;;;;;;;7.72;75.24;101085.56;5077743;28;20049;-70
2022/01/07 11:27:09;;;;;;;14.55;4.40;;;;;;;7.86;76.06;101076.38;5103930;28;20070;-70
2022/01/07 11:29:38;;;;;;;11.77;4.35;;;;;;;8.29;75.22;101088.38;5114764;28;20048;-69
2022/01/07 11:32:25;;;;;;;;;;;;;;;7.81;74.92;101094.81;5095269;28;20063;-70
2022/01/07 11:34:53;;;;;;;8.93;2.95;;;;;;;7.75;76.38;101099.50;5092402;28;19920;-68
2022/01/07 11:37:37;;;;;;;10.88;2.38;;;;;;;7.81;76.07;101094.81;5093003;28;20052;-68
2022/01/07 11:40:06;;;;;;;9.30;2.70;;;;;;;7.78;75.71;101103.59;5073915;28;20040;-68
2022/01/07 11:42:44;;;;;;;9.25;2.22;;;;;;;7.99;76.27;101086.69;5075132;28;20059;-68
2022/01/07 11:45:29;;;;;;;11.40;2.35;;;;;;;8.17;73.84;101079.69;5075402;28;20048;-69